sensor_id;sensor_type;location;lat;lon;timestamp;pressure;altitude;pressure_sealevel;temperature;humidity
5283;BME280;15376;48.540;9.268;2023-09-30T00:01:11;98332.59;;;15.95;100.00
5283;BME280;15376;48.540;9.268;2023-09-30T00:03:36;98317.06;;;15.84;100.00
5283;BME280;15376;48.540;9.268;2023-09-30T00:06:02;98331.53;;;15.90;100.00
5283;BME280;15376;48.540;9.268;2023-09-30T00:08:29;98330.47;;;15.84;100.00
5283;BME280;15376;48.540;9.268;2023-09-30T00:10:54;98335.13;;;15.76;100.00
5283;BME280;15376;48.540;9.268;2023-09-30T00:13:20;98332.25;;;15.77;100.00
5283;BME280;15376;48.540;9.268;2023-09-30T00:15:45;98311.84;;;15.48;100.00
5283;BME280;15376;48.540;9.268;2023-09-30T00:18:11;98321.31;;;15.51;100.00
5283;BME280;15376;48.540;9.268;2023-09-30T00:20:36;98296.41;;;15.29;100.00
5283;BME280;15376;48.540;9.268;2023-09-30T00:23:02;98342.03;;;15.63;100.00
5283;BME280;15376;48.540;9.268;2023-09-30T00:25:28;98341.66;;;15.66;100.00
5283;BME280;15376;48.540;9.268;2023-09-30T00:27:53;98338.72;;;15.61;100.00
5283;BME280;15376;48.540;9.268;2023-09-30T00:30:18;98319.75;;;15.35;100.00
5283;BME280;15376;48.540;9.268;2023-09-30T00:32:44;98315.53;;;15.26;100.00
5283;BME280;15376;48.540;9.268;2023-09-30T00:35:09;98336.44;;;15.37;100.00
5283;BME280;15376;48.540;9.268;2023-09-30T00:37:37;98334.34;;;15.32;100.00
5283;BME280;15376;48.540;9.268;2023-09-30T00:40:03;98334.78;;;15.36;100.00
5283;BME280;15376;48.540;9.268;2023-09-30T00:42:29;98344.84;;;15.34;100.00
5283;BME280;15376;48.540;9.268;2023-09-30T00:44:54;98342.56;;;15.31;100.00
5283;BME280;15376;48.540;9.268;2023-09-30T00:47:20;98345.13;;;15.18;100.00
5283;BME280;15376;48.540;9.268;2023-09-30T00:49:46;98338.69;;;15.12;100.00
5283;BME280;15376;48.540;9.268;2023-09-30T00:52:11;98346.47;;;15.07;100.00
5283;BME280;15376;48.540;9.268;2023-09-30T00:54:38;98341.66;;;15.02;100.00
5283;BME280;15376;48.540;9.268;2023-09-30T00:57:05;98306.13;;;14.87;100.00
5283;BME280;15376;48.540;9.268;2023-09-30T00:59:31;98332.00;;;15.01;100.00
5283;BME280;15376;48.540;9.268;2023-09-30T01:01:58;98310.13;;;14.77;100.00
5283;BME280;15376;48.540;9.268;2023-09-30T01:04:24;98304.97;;;14.75;100.00
5283;BME280;15376;48.540;9.268;2023-09-30T01:06:51;98322.88;;;14.75;100.00
5283;BME280;15376;48.540;9.268;2023-09-30T01:09:17;98334.84;;;14.79;100.00
5283;BME280;15376;48.540;9.268;2023-09-30T01:11:42;98320.94;;;14.68;100.00
5283;BME280;15376;48.540;9.268;2023-09-30T01:14:25;98330.88;;;14.75;100.00
5283;BME280;15376;48.540;9.268;2023-09-30T01:16:50;98336.53;;;14.65;100.00
5283;BME280;15376;48.540;9.268;2023-09-30T01:19:16;98333.41;;;14.61;100.00
5283;BME280;15376;48.540;9.268;2023-09-30T01:21:41;98337.28;;;14.44;100.00
5283;BME280;15376;48.540;9.268;2023-09-30T01:24:07;98332.88;;;14.37;100.00
5283;BME280;15376;48.540;9.268;2023-09-30T01:26:32;98309.38;;;14.02;100.00
5283;BME280;15376;48.540;9.268;2023-09-30T01:28:58;98338.75;;;14.17;100.00
5283;BME280;15376;48.540;9.268;2023-09-30T01:31:23;98335.53;;;14.22;100.00
5283;BME280;15376;48.540;9.268;2023-09-30T01:33:49;98261.41;;;13.80;100.00
5283;BME280;15376;48.540;9.268;2023-09-30T01:36:14;98338.22;;;14.37;100.00
5283;BME280;15376;48.540;9.268;2023-09-30T01:38:40;98341.16;;;14.42;100.00
5283;BME280;15376;48.540;9.268;2023-09-30T01:41:06;98339.97;;;14.44;100.00
5283;BME280;15376;48.540;9.268;2023-09-30T01:43:31;98346.31;;;14.28;100.00
5283;BME280;15376;48.540;9.268;2023-09-30T01:45:56;98356.44;;;14.03;100.00
5283;BME280;15376;48.540;9.268;2023-09-30T01:48:23;98354.97;;;14.01;100.00
5283;BME280;15376;48.540;9.268;2023-09-30T01:50:48;98353.50;;;14.13;100.00
5283;BME280;15376;48.540;9.268;2023-09-30T01:53:13;98348.06;;;14.07;100.00
5283;BME280;15376;48.540;9.268;2023-09-30T01:55:39;98343.66;;;14.14;100.00
5283;BME280;15376;48.540;9.268;2023-09-30T01:58:04;98345.66;;;14.12;100.00
5283;BME280;15376;48.540;9.268;2023-09-30T02:00:30;98305.16;;;13.93;100.00
5283;BME280;15376;48.540;9.268;2023-09-30T02:02:55;98341.34;;;14.25;100.00
5283;BME280;15376;48.540;9.268;2023-09-30T02:05:21;98339.22;;;14.35;100.00
5283;BME280;15376;48.540;9.268;2023-09-30T02:07:48;98346.78;;;14.47;100.00
5283;BME280;15376;48.540;9.268;2023-09-30T02:10:13;98336.00;;;14.55;100.00
5283;BME280;15376;48.540;9.268;2023-09-30T02:12:38;98336.06;;;14.61;100.00
5283;BME280;15376;48.540;9.268;2023-09-30T02:15:04;98336.16;;;14.68;100.00
5283;BME280;15376;48.540;9.268;2023-09-30T02:17:32;98339.47;;;14.70;100.00
5283;BME280;15376;48.540;9.268;2023-09-30T02:19:57;98342.16;;;14.70;100.00
5283;BME280;15376;48.540;9.268;2023-09-30T02:22:22;98346.09;;;14.74;100.00
5283;BME280;15376;48.540;9.268;2023-09-30T02:24:49;98345.41;;;14.87;100.00
5283;BME280;15376;48.540;9.268;2023-09-30T02:27:15;98352.34;;;14.81;100.00
5283;BME280;15376;48.540;9.268;2023-09-30T02:29:40;98350.88;;;14.79;100.00
5283;BME280;15376;48.540;9.268;2023-09-30T02:32:06;98351.75;;;14.64;100.00
5283;BME280;15376;48.540;9.268;2023-09-30T02:34:31;98363.19;;;14.58;100.00
5283;BME280;15376;48.540;9.268;2023-09-30T02:36:57;98365.28;;;14.63;100.00
5283;BME280;15376;48.540;9.268;2023-09-30T02:39:24;98358.09;;;14.78;100.00
5283;BME280;15376;48.540;9.268;2023-09-30T02:41:51;98354.13;;;14.74;100.00
5283;BME280;15376;48.540;9.268;2023-09-30T02:44:17;98360.13;;;14.76;100.00
5283;BME280;15376;48.540;9.268;2023-09-30T02:46:43;98365.31;;;14.84;100.00
5283;BME280;15376;48.540;9.268;2023-09-30T02:49:08;98361.81;;;14.84;100.00
5283;BME280;15376;48.540;9.268;2023-09-30T02:51:33;98364.13;;;14.87;100.00
5283;BME280;15376;48.540;9.268;2023-09-30T02:53:59;98356.44;;;14.77;100.00
5283;BME280;15376;48.540;9.268;2023-09-30T02:56:25;98370.63;;;14.78;100.00
5283;BME280;15376;48.540;9.268;2023-09-30T02:58:51;98357.81;;;14.73;100.00
5283;BME280;15376;48.540;9.268;2023-09-30T03:01:17;98372.06;;;14.80;100.00
5283;BME280;15376;48.540;9.268;2023-09-30T03:03:43;98349.78;;;14.73;100.00
5283;BME280;15376;48.540;9.268;2023-09-30T03:06:11;98343.81;;;14.71;100.00
5283;BME280;15376;48.540;9.268;2023-09-30T03:08:37;98367.63;;;14.87;100.00
5283;BME280;15376;48.540;9.268;2023-09-30T03:11:02;98374.06;;;14.93;100.00
5283;BME280;15376;48.540;9.268;2023-09-30T03:13:29;98369.66;;;14.85;100.00
5283;BME280;15376;48.540;9.268;2023-09-30T03:15:55;98337.66;;;14.56;100.00
5283;BME280;15376;48.540;9.268;2023-09-30T03:18:22;98374.88;;;14.72;100.00
5283;BME280;15376;48.540;9.268;2023-09-30T03:20:52;98383.44;;;14.67;100.00
5283;BME280;15376;48.540;9.268;2023-09-30T03:23:22;98379.13;;;14.52;100.00
5283;BME280;15376;48.540;9.268;2023-09-30T03:25:47;98385.22;;;14.46;100.00
5283;BME280;15376;48.540;9.268;2023-09-30T03:28:13;98386.50;;;14.50;100.00
5283;BME280;15376;48.540;9.268;2023-09-30T03:30:40;98366.78;;;14.21;100.00
5283;BME280;15376;48.540;9.268;2023-09-30T03:33:05;98386.78;;;14.25;100.00
5283;BME280;15376;48.540;9.268;2023-09-30T03:35:30;98382.44;;;14.24;100.00
5283;BME280;15376;48.540;9.268;2023-09-30T03:37:57;98382.53;;;14.31;100.00
5283;BME280;15376;48.540;9.268;2023-09-30T03:40:23;98382.22;;;14.41;100.00
5283;BME280;15376;48.540;9.268;2023-09-30T03:42:53;98359.13;;;14.33;100.00
5283;BME280;15376;48.540;9.268;2023-09-30T03:45:19;98382.06;;;14.57;100.00
5283;BME280;15376;48.540;9.268;2023-09-30T03:47:45;98376.06;;;14.40;100.00
5283;BME280;15376;48.540;9.268;2023-09-30T03:50:11;98370.38;;;14.43;100.00
5283;BME280;15376;48.540;9.268;2023-09-30T03:52:40;98353.97;;;14.31;100.00
5283;BME280;15376;48.540;9.268;2023-09-30T03:55:10;98366.50;;;14.46;100.00
5283;BME280;15376;48.540;9.268;2023-09-30T03:57:37;98356.66;;;14.31;100.00
5283;BME280;15376;48.540;9.268;2023-09-30T04:00:02;98363.81;;;14.16;100.00
5283;BME280;15376;48.540;9.268;2023-09-30T04:02:31;98352.94;;;14.03;100.00
5283;BME280;15376;48.540;9.268;2023-09-30T04:04:57;98356.81;;;13.86;100.00
5283;BME280;15376;48.540;9.268;2023-09-30T04:07:23;98366.97;;;13.67;100.00
5283;BME280;15376;48.540;9.268;2023-09-30T04:09:54;98318.47;;;13.26;100.00
5283;BME280;15376;48.540;9.268;2023-09-30T04:12:20;98362.28;;;13.55;100.00
5283;BME280;15376;48.540;9.268;2023-09-30T04:14:45;98362.47;;;13.53;100.00
5283;BME280;15376;48.540;9.268;2023-09-30T04:17:11;98358.78;;;13.54;100.00
5283;BME280;15376;48.540;9.268;2023-09-30T04:19:37;98285.75;;;13.10;100.00
5283;BME280;15376;48.540;9.268;2023-09-30T04:22:02;98375.88;;;13.45;100.00
5283;BME280;15376;48.540;9.268;2023-09-30T04:24:27;98377.53;;;13.46;100.00
5283;BME280;15376;48.540;9.268;2023-09-30T04:26:54;98340.28;;;13.07;100.00
5283;BME280;15376;48.540;9.268;2023-09-30T04:29:22;98338.84;;;12.96;100.00
5283;BME280;15376;48.540;9.268;2023-09-30T04:31:49;98347.16;;;13.01;100.00
5283;BME280;15376;48.540;9.268;2023-09-30T04:34:14;98336.22;;;12.88;100.00
5283;BME280;15376;48.540;9.268;2023-09-30T04:36:40;98379.25;;;13.16;100.00
5283;BME280;15376;48.540;9.268;2023-09-30T04:39:05;98381.13;;;13.30;100.00
5283;BME280;15376;48.540;9.268;2023-09-30T04:41:31;98391.28;;;13.35;100.00
5283;BME280;15376;48.540;9.268;2023-09-30T04:43:56;98392.88;;;13.44;100.00
5283;BME280;15376;48.540;9.268;2023-09-30T04:46:21;98394.53;;;13.45;100.00
5283;BME280;15376;48.540;9.268;2023-09-30T04:48:48;98382.25;;;13.13;100.00
5283;BME280;15376;48.540;9.268;2023-09-30T04:51:14;98408.81;;;13.29;100.00
5283;BME280;15376;48.540;9.268;2023-09-30T04:53:41;98402.25;;;13.40;100.00
5283;BME280;15376;48.540;9.268;2023-09-30T04:56:07;98375.28;;;13.35;100.00
5283;BME280;15376;48.540;9.268;2023-09-30T04:58:32;98415.75;;;13.61;100.00
5283;BME280;15376;48.540;9.268;2023-09-30T05:00:58;98398.06;;;13.60;100.00
5283;BME280;15376;48.540;9.268;2023-09-30T05:03:23;98373.78;;;13.55;100.00
5283;BME280;15376;48.540;9.268;2023-09-30T05:05:51;98418.94;;;13.80;100.00
5283;BME280;15376;48.540;9.268;2023-09-30T05:08:18;98424.94;;;13.82;100.00
5283;BME280;15376;48.540;9.268;2023-09-30T05:10:43;98394.03;;;13.64;100.00
5283;BME280;15376;48.540;9.268;2023-09-30T05:13:09;98418.16;;;13.94;100.00
5283;BME280;15376;48.540;9.268;2023-09-30T05:15:35;98395.84;;;13.87;100.00
5283;BME280;15376;48.540;9.268;2023-09-30T05:18:00;98331.16;;;13.47;100.00
5283;BME280;15376;48.540;9.268;2023-09-30T05:20:26;98431.41;;;13.87;100.00
5283;BME280;15376;48.540;9.268;2023-09-30T05:22:51;98433.31;;;13.79;100.00
5283;BME280;15376;48.540;9.268;2023-09-30T05:25:17;98431.94;;;13.83;100.00
5283;BME280;15376;48.540;9.268;2023-09-30T05:27:45;98439.28;;;13.81;100.00
5283;BME280;15376;48.540;9.268;2023-09-30T05:30:13;98447.38;;;13.73;100.00
5283;BME280;15376;48.540;9.268;2023-09-30T05:32:40;98402.53;;;13.45;100.00
5283;BME280;15376;48.540;9.268;2023-09-30T05:35:06;98446.69;;;13.56;100.00
5283;BME280;15376;48.540;9.268;2023-09-30T05:37:38;98433.41;;;13.62;100.00
5283;BME280;15376;48.540;9.268;2023-09-30T05:40:04;98435.69;;;13.74;100.00
5283;BME280;15376;48.540;9.268;2023-09-30T05:42:34;98432.94;;;13.82;100.00
5283;BME280;15376;48.540;9.268;2023-09-30T05:45:01;98432.88;;;13.90;100.00
5283;BME280;15376;48.540;9.268;2023-09-30T05:47:26;98433.16;;;13.95;100.00
5283;BME280;15376;48.540;9.268;2023-09-30T05:49:51;98427.25;;;13.85;100.00
5283;BME280;15376;48.540;9.268;2023-09-30T05:52:17;98423.81;;;13.76;100.00
5283;BME280;15376;48.540;9.268;2023-09-30T05:54:42;98419.72;;;13.65;100.00
5283;BME280;15376;48.540;9.268;2023-09-30T05:57:07;98428.56;;;13.66;100.00
5283;BME280;15376;48.540;9.268;2023-09-30T05:59:33;98428.72;;;13.64;100.00
5283;BME280;15376;48.540;9.268;2023-09-30T06:01:59;98362.75;;;13.35;100.00
5283;BME280;15376;48.540;9.268;2023-09-30T06:04:24;98414.97;;;13.76;100.00
5283;BME280;15376;48.540;9.268;2023-09-30T06:06:50;98429.66;;;13.94;100.00
5283;BME280;15376;48.540;9.268;2023-09-30T06:09:15;98442.00;;;14.10;100.00
5283;BME280;15376;48.540;9.268;2023-09-30T06:11:41;98426.16;;;14.09;100.00
5283;BME280;15376;48.540;9.268;2023-09-30T06:14:07;98423.31;;;14.10;100.00
5283;BME280;15376;48.540;9.268;2023-09-30T06:16:33;98423.88;;;14.20;100.00
5283;BME280;15376;48.540;9.268;2023-09-30T06:18:59;98419.00;;;14.24;100.00
5283;BME280;15376;48.540;9.268;2023-09-30T06:21:25;98434.31;;;14.30;100.00
5283;BME280;15376;48.540;9.268;2023-09-30T06:23:54;98425.09;;;14.32;100.00
5283;BME280;15376;48.540;9.268;2023-09-30T06:26:19;98434.50;;;14.43;100.00
5283;BME280;15376;48.540;9.268;2023-09-30T06:28:46;98412.84;;;14.23;100.00
5283;BME280;15376;48.540;9.268;2023-09-30T06:31:13;98433.31;;;14.46;100.00
5283;BME280;15376;48.540;9.268;2023-09-30T06:33:38;98465.06;;;14.78;100.00
5283;BME280;15376;48.540;9.268;2023-09-30T06:36:09;98467.78;;;14.85;100.00
5283;BME280;15376;48.540;9.268;2023-09-30T06:38:34;98460.03;;;14.90;100.00
5283;BME280;15376;48.540;9.268;2023-09-30T06:41:00;98433.28;;;14.90;100.00
5283;BME280;15376;48.540;9.268;2023-09-30T06:43:26;98425.25;;;14.90;100.00
5283;BME280;15376;48.540;9.268;2023-09-30T06:45:53;98392.56;;;14.73;100.00
5283;BME280;15376;48.540;9.268;2023-09-30T06:48:19;98478.41;;;15.29;100.00
5283;BME280;15376;48.540;9.268;2023-09-30T06:50:46;98478.22;;;15.30;100.00
5283;BME280;15376;48.540;9.268;2023-09-30T06:53:14;98465.22;;;15.27;100.00
5283;BME280;15376;48.540;9.268;2023-09-30T06:55:39;98480.69;;;15.47;100.00
5283;BME280;15376;48.540;9.268;2023-09-30T06:58:05;98486.13;;;15.53;100.00
5283;BME280;15376;48.540;9.268;2023-09-30T07:00:33;98494.47;;;15.65;100.00
5283;BME280;15376;48.540;9.268;2023-09-30T07:02:59;98505.72;;;15.75;100.00
5283;BME280;15376;48.540;9.268;2023-09-30T07:05:25;98485.63;;;15.86;100.00
5283;BME280;15376;48.540;9.268;2023-09-30T07:07:51;98504.81;;;16.11;100.00
5283;BME280;15376;48.540;9.268;2023-09-30T07:10:16;98497.78;;;16.10;100.00
5283;BME280;15376;48.540;9.268;2023-09-30T07:12:41;98506.19;;;16.28;100.00
5283;BME280;15376;48.540;9.268;2023-09-30T07:15:08;98502.13;;;16.32;100.00
5283;BME280;15376;48.540;9.268;2023-09-30T07:17:34;98448.28;;;16.06;100.00
5283;BME280;15376;48.540;9.268;2023-09-30T07:20:00;98484.25;;;16.46;100.00
5283;BME280;15376;48.540;9.268;2023-09-30T07:22:25;98448.06;;;16.28;100.00
5283;BME280;15376;48.540;9.268;2023-09-30T07:24:51;98482.63;;;16.51;100.00
5283;BME280;15376;48.540;9.268;2023-09-30T07:27:16;98473.38;;;16.54;100.00
5283;BME280;15376;48.540;9.268;2023-09-30T07:29:42;98484.44;;;16.65;100.00
5283;BME280;15376;48.540;9.268;2023-09-30T07:32:08;98494.97;;;16.67;100.00
5283;BME280;15376;48.540;9.268;2023-09-30T07:34:34;98469.47;;;16.56;100.00
5283;BME280;15376;48.540;9.268;2023-09-30T07:37:00;98499.97;;;16.77;100.00
5283;BME280;15376;48.540;9.268;2023-09-30T07:39:25;98495.44;;;16.84;100.00
5283;BME280;15376;48.540;9.268;2023-09-30T07:41:51;98490.53;;;16.87;100.00
5283;BME280;15376;48.540;9.268;2023-09-30T07:44:16;98516.88;;;17.12;100.00
5283;BME280;15376;48.540;9.268;2023-09-30T07:46:42;98512.56;;;17.17;100.00
5283;BME280;15376;48.540;9.268;2023-09-30T07:49:11;98501.03;;;17.30;100.00
5283;BME280;15376;48.540;9.268;2023-09-30T07:51:36;98470.88;;;17.28;100.00
5283;BME280;15376;48.540;9.268;2023-09-30T07:54:04;98500.13;;;17.57;100.00
5283;BME280;15376;48.540;9.268;2023-09-30T07:56:30;98484.19;;;17.62;100.00
5283;BME280;15376;48.540;9.268;2023-09-30T07:58:55;98504.94;;;17.82;100.00
5283;BME280;15376;48.540;9.268;2023-09-30T08:01:20;98516.56;;;17.95;100.00
5283;BME280;15376;48.540;9.268;2023-09-30T08:03:48;98513.22;;;18.00;100.00
5283;BME280;15376;48.540;9.268;2023-09-30T08:06:13;98499.19;;;18.11;100.00
5283;BME280;15376;48.540;9.268;2023-09-30T08:08:39;98505.38;;;18.18;100.00
5283;BME280;15376;48.540;9.268;2023-09-30T08:11:05;98532.06;;;18.26;100.00
5283;BME280;15376;48.540;9.268;2023-09-30T08:13:31;98513.66;;;18.10;100.00
5283;BME280;15376;48.540;9.268;2023-09-30T08:15:57;98527.75;;;18.25;100.00
5283;BME280;15376;48.540;9.268;2023-09-30T08:18:23;98520.06;;;18.09;100.00
5283;BME280;15376;48.540;9.268;2023-09-30T08:20:48;98497.94;;;18.07;100.00
5283;BME280;15376;48.540;9.268;2023-09-30T08:23:14;98507.84;;;18.00;100.00
5283;BME280;15376;48.540;9.268;2023-09-30T08:25:39;98496.69;;;17.90;100.00
5283;BME280;15376;48.540;9.268;2023-09-30T08:28:05;98512.00;;;17.89;100.00
5283;BME280;15376;48.540;9.268;2023-09-30T08:30:32;98507.41;;;17.77;100.00
5283;BME280;15376;48.540;9.268;2023-09-30T08:32:58;98500.22;;;17.90;100.00
5283;BME280;15376;48.540;9.268;2023-09-30T08:35:24;98493.81;;;17.98;100.00
5283;BME280;15376;48.540;9.268;2023-09-30T08:37:50;98505.38;;;18.18;100.00
5283;BME280;15376;48.540;9.268;2023-09-30T08:40:20;98492.34;;;18.15;100.00
5283;BME280;15376;48.540;9.268;2023-09-30T08:42:51;98502.09;;;18.29;100.00
5283;BME280;15376;48.540;9.268;2023-09-30T08:45:17;98500.00;;;18.45;100.00
5283;BME280;15376;48.540;9.268;2023-09-30T08:47:43;98512.81;;;18.43;100.00
5283;BME280;15376;48.540;9.268;2023-09-30T08:50:09;98512.22;;;18.27;100.00
5283;BME280;15376;48.540;9.268;2023-09-30T08:52:37;98506.81;;;18.54;100.00
5283;BME280;15376;48.540;9.268;2023-09-30T08:55:04;98496.69;;;18.76;100.00
5283;BME280;15376;48.540;9.268;2023-09-30T08:57:29;98495.38;;;18.91;100.00
5283;BME280;15376;48.540;9.268;2023-09-30T08:59:55;98489.53;;;19.08;100.00
5283;BME280;15376;48.540;9.268;2023-09-30T09:02:21;98502.22;;;19.58;99.49
5283;BME280;15376;48.540;9.268;2023-09-30T09:04:46;98501.06;;;20.04;96.70
5283;BME280;15376;48.540;9.268;2023-09-30T09:07:12;98508.66;;;20.45;93.84
5283;BME280;15376;48.540;9.268;2023-09-30T09:09:38;98503.25;;;20.88;91.08
5283;BME280;15376;48.540;9.268;2023-09-30T09:12:03;98493.34;;;21.19;89.96
5283;BME280;15376;48.540;9.268;2023-09-30T09:14:42;98511.66;;;21.53;88.00
5283;BME280;15376;48.540;9.268;2023-09-30T09:17:11;98497.63;;;21.08;85.61
5283;BME280;15376;48.540;9.268;2023-09-30T09:19:37;98497.91;;;21.85;84.96
5283;BME280;15376;48.540;9.268;2023-09-30T09:22:03;98507.03;;;23.42;77.86
5283;BME280;15376;48.540;9.268;2023-09-30T09:24:36;98516.47;;;24.42;72.30
5283;BME280;15376;48.540;9.268;2023-09-30T09:27:08;98501.34;;;25.18;68.98
5283;BME280;15376;48.540;9.268;2023-09-30T09:29:35;98509.50;;;26.15;64.39
5283;BME280;15376;48.540;9.268;2023-09-30T09:32:15;98517.72;;;26.89;60.44
5283;BME280;15376;48.540;9.268;2023-09-30T09:34:42;98517.50;;;27.43;59.38
5283;BME280;15376;48.540;9.268;2023-09-30T09:37:18;98522.69;;;28.38;56.06
5283;BME280;15376;48.540;9.268;2023-09-30T09:39:56;98509.53;;;28.91;50.13
5283;BME280;15376;48.540;9.268;2023-09-30T09:42:29;98485.16;;;29.09;51.80
5283;BME280;15376;48.540;9.268;2023-09-30T09:44:57;98516.91;;;30.58;48.55
5283;BME280;15376;48.540;9.268;2023-09-30T09:47:23;98507.81;;;30.92;47.43
5283;BME280;15376;48.540;9.268;2023-09-30T09:49:50;98499.19;;;31.75;45.79
5283;BME280;15376;48.540;9.268;2023-09-30T09:52:16;98492.97;;;30.93;44.23
5283;BME280;15376;48.540;9.268;2023-09-30T09:54:46;98481.66;;;31.71;44.00
5283;BME280;15376;48.540;9.268;2023-09-30T09:57:12;98495.25;;;31.81;43.51
5283;BME280;15376;48.540;9.268;2023-09-30T09:59:38;98483.13;;;31.39;43.33
5283;BME280;15376;48.540;9.268;2023-09-30T10:02:10;98495.00;;;29.75;44.34
5283;BME280;15376;48.540;9.268;2023-09-30T10:04:42;98482.47;;;29.64;45.59
5283;BME280;15376;48.540;9.268;2023-09-30T10:07:11;98477.78;;;28.95;46.48
5283;BME280;15376;48.540;9.268;2023-09-30T10:09:41;98476.09;;;29.19;45.68
5283;BME280;15376;48.540;9.268;2023-09-30T10:12:10;98480.38;;;29.45;44.94
5283;BME280;15376;48.540;9.268;2023-09-30T10:14:35;98470.22;;;28.26;46.92
5283;BME280;15376;48.540;9.268;2023-09-30T10:17:02;98480.19;;;27.64;49.27
5283;BME280;15376;48.540;9.268;2023-09-30T10:19:28;98485.22;;;26.41;51.96
5283;BME280;15376;48.540;9.268;2023-09-30T10:24:44;98474.56;;;25.75;52.13
5283;BME280;15376;48.540;9.268;2023-09-30T10:35:20;98479.78;;;28.38;46.17
5283;BME280;15376;48.540;9.268;2023-09-30T10:37:47;98474.09;;;27.37;47.24
5283;BME280;15376;48.540;9.268;2023-09-30T10:40:29;98465.06;;;26.37;49.70
5283;BME280;15376;48.540;9.268;2023-09-30T10:42:55;98454.53;;;25.86;52.22
5283;BME280;15376;48.540;9.268;2023-09-30T10:53:17;98450.00;;;23.37;58.01
5283;BME280;15376;48.540;9.268;2023-09-30T10:55:45;98456.91;;;23.16;59.16
5283;BME280;15376;48.540;9.268;2023-09-30T10:58:11;98450.34;;;23.01;59.29
5283;BME280;15376;48.540;9.268;2023-09-30T11:00:36;98437.63;;;22.89;62.00
5283;BME280;15376;48.540;9.268;2023-09-30T11:03:04;98445.53;;;22.79;61.89
5283;BME280;15376;48.540;9.268;2023-09-30T11:05:31;98434.13;;;22.77;61.65
5283;BME280;15376;48.540;9.268;2023-09-30T11:08:01;98433.41;;;22.70;62.27
5283;BME280;15376;48.540;9.268;2023-09-30T11:10:28;98432.38;;;22.36;61.40
5283;BME280;15376;48.540;9.268;2023-09-30T11:12:57;98433.28;;;22.42;65.15
5283;BME280;15376;48.540;9.268;2023-09-30T11:15:24;98425.53;;;22.45;65.59
5283;BME280;15376;48.540;9.268;2023-09-30T11:17:51;98416.47;;;22.40;64.17
5283;BME280;15376;48.540;9.268;2023-09-30T11:20:17;98418.94;;;22.41;63.00
5283;BME280;15376;48.540;9.268;2023-09-30T11:22:47;98398.69;;;22.09;62.32
5283;BME280;15376;48.540;9.268;2023-09-30T11:25:18;98405.56;;;22.35;61.12
5283;BME280;15376;48.540;9.268;2023-09-30T11:27:44;98420.00;;;22.40;59.65
5283;BME280;15376;48.540;9.268;2023-09-30T11:30:11;98424.13;;;22.19;59.47
5283;BME280;15376;48.540;9.268;2023-09-30T11:32:37;98412.69;;;21.94;60.73
5283;BME280;15376;48.540;9.268;2023-09-30T11:35:25;98411.03;;;21.93;63.49
5283;BME280;15376;48.540;9.268;2023-09-30T11:37:50;98404.56;;;22.06;60.83
5283;BME280;15376;48.540;9.268;2023-09-30T11:40:17;98371.16;;;21.88;60.49
5283;BME280;15376;48.540;9.268;2023-09-30T11:43:07;98400.66;;;21.90;61.90
5283;BME280;15376;48.540;9.268;2023-09-30T11:45:33;98390.81;;;21.95;64.06
5283;BME280;15376;48.540;9.268;2023-09-30T11:47:59;98402.84;;;22.23;62.28
5283;BME280;15376;48.540;9.268;2023-09-30T11:50:24;98401.78;;;22.36;59.96
5283;BME280;15376;48.540;9.268;2023-09-30T11:52:50;98387.16;;;21.90;55.05
5283;BME280;15376;48.540;9.268;2023-09-30T11:55:15;98404.81;;;22.04;55.94
5283;BME280;15376;48.540;9.268;2023-09-30T11:57:41;98405.75;;;21.98;55.43
5283;BME280;15376;48.540;9.268;2023-09-30T12:00:07;98409.19;;;22.17;56.92
5283;BME280;15376;48.540;9.268;2023-09-30T12:02:38;98403.16;;;22.03;54.31
5283;BME280;15376;48.540;9.268;2023-09-30T12:05:05;98409.91;;;22.24;55.69
5283;BME280;15376;48.540;9.268;2023-09-30T12:07:37;98389.03;;;22.48;52.85
5283;BME280;15376;48.540;9.268;2023-09-30T12:10:02;98395.16;;;22.55;53.07
5283;BME280;15376;48.540;9.268;2023-09-30T12:12:28;98407.34;;;22.92;53.18
5283;BME280;15376;48.540;9.268;2023-09-30T12:14:53;98399.81;;;22.94;55.24
5283;BME280;15376;48.540;9.268;2023-09-30T12:17:20;98365.72;;;22.70;55.61
5283;BME280;15376;48.540;9.268;2023-09-30T12:19:46;98405.63;;;22.63;54.13
5283;BME280;15376;48.540;9.268;2023-09-30T12:22:13;98414.00;;;22.50;54.54
5283;BME280;15376;48.540;9.268;2023-09-30T12:24:39;98411.66;;;22.18;56.82
5283;BME280;15376;48.540;9.268;2023-09-30T12:27:05;98398.34;;;22.05;57.32
5283;BME280;15376;48.540;9.268;2023-09-30T12:29:31;98397.72;;;21.91;57.46
5283;BME280;15376;48.540;9.268;2023-09-30T12:31:57;98397.50;;;21.93;58.59
5283;BME280;15376;48.540;9.268;2023-09-30T12:34:22;98410.69;;;22.01;59.74
5283;BME280;15376;48.540;9.268;2023-09-30T12:36:52;98412.22;;;22.09;60.20
5283;BME280;15376;48.540;9.268;2023-09-30T12:39:17;98399.34;;;21.81;59.25
5283;BME280;15376;48.540;9.268;2023-09-30T12:41:48;98406.88;;;21.79;60.51
5283;BME280;15376;48.540;9.268;2023-09-30T12:44:14;98379.34;;;21.70;61.15
5283;BME280;15376;48.540;9.268;2023-09-30T12:46:40;98395.78;;;21.69;60.45
5283;BME280;15376;48.540;9.268;2023-09-30T12:49:08;98404.50;;;21.71;60.53
5283;BME280;15376;48.540;9.268;2023-09-30T12:51:34;98377.47;;;21.59;60.70
5283;BME280;15376;48.540;9.268;2023-09-30T12:54:00;98366.38;;;21.60;60.43
5283;BME280;15376;48.540;9.268;2023-09-30T12:56:26;98377.81;;;21.74;61.13
5283;BME280;15376;48.540;9.268;2023-09-30T12:58:51;98368.94;;;21.97;61.11
5283;BME280;15376;48.540;9.268;2023-09-30T13:01:17;98390.59;;;22.09;61.12
5283;BME280;15376;48.540;9.268;2023-09-30T13:03:47;98391.41;;;22.09;60.04
5283;BME280;15376;48.540;9.268;2023-09-30T13:06:12;98390.47;;;22.27;58.94
5283;BME280;15376;48.540;9.268;2023-09-30T13:08:38;98389.75;;;22.43;58.91
5283;BME280;15376;48.540;9.268;2023-09-30T13:11:04;98399.44;;;22.39;56.36
5283;BME280;15376;48.540;9.268;2023-09-30T13:13:29;98398.47;;;22.10;56.44
5283;BME280;15376;48.540;9.268;2023-09-30T13:16:02;98383.50;;;21.96;57.95
5283;BME280;15376;48.540;9.268;2023-09-30T13:18:31;98391.06;;;22.06;57.75